sensor_id;sensor_type;location;lat;lon;timestamp;temperature;humidity
52275;DHT22;38228;50.940;4.024;2024-01-10T00:01:34;-2.60;99.90
52275;DHT22;38228;50.940;4.024;2024-01-10T00:03:59;-2.60;99.90
52275;DHT22;38228;50.940;4.024;2024-01-10T00:06:25;-2.60;99.90
52275;DHT22;38228;50.940;4.024;2024-01-10T00:08:51;-2.60;99.90
52275;DHT22;38228;50.940;4.024;2024-01-10T00:11:17;-2.70;99.90
52275;DHT22;38228;50.940;4.024;2024-01-10T00:13:42;-2.70;99.90
52275;DHT22;38228;50.940;4.024;2024-01-10T00:16:09;-2.70;99.90
52275;DHT22;38228;50.940;4.024;2024-01-10T00:18:36;-2.60;99.90
52275;DHT22;38228;50.940;4.024;2024-01-10T00:21:02;-2.60;99.90
52275;DHT22;38228;50.940;4.024;2024-01-10T00:23:28;-2.50;99.90
52275;DHT22;38228;50.940;4.024;2024-01-10T00:25:54;-2.40;99.90
52275;DHT22;38228;50.940;4.024;2024-01-10T00:28:19;-2.30;99.90
52275;DHT22;38228;50.940;4.024;2024-01-10T00:30:46;-2.40;99.90
52275;DHT22;38228;50.940;4.024;2024-01-10T00:33:13;-2.50;99.90
52275;DHT22;38228;50.940;4.024;2024-01-10T00:35:39;-2.50;99.90
52275;DHT22;38228;50.940;4.024;2024-01-10T00:38:05;-2.70;99.90
52275;DHT22;38228;50.940;4.024;2024-01-10T00:40:31;-2.70;99.90
52275;DHT22;38228;50.940;4.024;2024-01-10T00:42:57;-2.60;99.90
52275;DHT22;38228;50.940;4.024;2024-01-10T00:45:22;-2.60;99.90
52275;DHT22;38228;50.940;4.024;2024-01-10T00:47:51;-2.70;99.90
52275;DHT22;38228;50.940;4.024;2024-01-10T00:50:17;-2.70;99.90
52275;DHT22;38228;50.940;4.024;2024-01-10T00:52:46;-2.70;99.90
52275;DHT22;38228;50.940;4.024;2024-01-10T00:55:12;-2.70;99.90
52275;DHT22;38228;50.940;4.024;2024-01-10T00:57:38;-2.70;99.90
52275;DHT22;38228;50.940;4.024;2024-01-10T01:00:06;-2.70;99.90
52275;DHT22;38228;50.940;4.024;2024-01-10T01:02:31;-2.80;99.90
52275;DHT22;38228;50.940;4.024;2024-01-10T01:04:57;-2.80;99.90
52275;DHT22;38228;50.940;4.024;2024-01-10T01:07:23;-2.80;99.90
52275;DHT22;38228;50.940;4.024;2024-01-10T01:09:48;-2.80;99.90
52275;DHT22;38228;50.940;4.024;2024-01-10T01:12:14;-2.80;99.90
52275;DHT22;38228;50.940;4.024;2024-01-10T01:14:40;-2.80;99.90
52275;DHT22;38228;50.940;4.024;2024-01-10T01:17:06;-2.70;99.90
52275;DHT22;38228;50.940;4.024;2024-01-10T01:19:31;-2.80;99.90
52275;DHT22;38228;50.940;4.024;2024-01-10T01:21:57;-2.70;99.90
52275;DHT22;38228;50.940;4.024;2024-01-10T01:24:23;-2.80;99.90
52275;DHT22;38228;50.940;4.024;2024-01-10T01:26:48;-2.70;99.90
52275;DHT22;38228;50.940;4.024;2024-01-10T01:29:14;-2.70;99.90
52275;DHT22;38228;50.940;4.024;2024-01-10T01:31:40;-2.80;99.90
52275;DHT22;38228;50.940;4.024;2024-01-10T01:34:05;-2.80;99.90
52275;DHT22;38228;50.940;4.024;2024-01-10T01:36:31;-2.90;99.90
52275;DHT22;38228;50.940;4.024;2024-01-10T01:38:57;-3.20;99.90
52275;DHT22;38228;50.940;4.024;2024-01-10T01:41:23;-3.00;99.90
52275;DHT22;38228;50.940;4.024;2024-01-10T01:43:48;-2.90;99.90
52275;DHT22;38228;50.940;4.024;2024-01-10T01:46:14;-2.80;99.90
52275;DHT22;38228;50.940;4.024;2024-01-10T01:48:40;-3.10;99.90
52275;DHT22;38228;50.940;4.024;2024-01-10T01:51:07;-3.10;99.90
52275;DHT22;38228;50.940;4.024;2024-01-10T01:53:35;-3.00;99.90
52275;DHT22;38228;50.940;4.024;2024-01-10T01:56:04;-3.00;99.90
52275;DHT22;38228;50.940;4.024;2024-01-10T01:58:31;-3.00;99.90
52275;DHT22;38228;50.940;4.024;2024-01-10T02:00:57;-2.80;99.90
52275;DHT22;38228;50.940;4.024;2024-01-10T02:03:23;-2.90;99.90
52275;DHT22;38228;50.940;4.024;2024-01-10T02:05:49;-2.90;99.90
52275;DHT22;38228;50.940;4.024;2024-01-10T02:08:15;-3.20;99.90
52275;DHT22;38228;50.940;4.024;2024-01-10T02:10:41;-3.40;99.90
52275;DHT22;38228;50.940;4.024;2024-01-10T02:13:07;-3.50;99.90
52275;DHT22;38228;50.940;4.024;2024-01-10T02:15:35;-3.40;99.90
52275;DHT22;38228;50.940;4.024;2024-01-10T02:18:01;-3.30;99.90
52275;DHT22;38228;50.940;4.024;2024-01-10T02:20:27;-3.10;99.90
52275;DHT22;38228;50.940;4.024;2024-01-10T02:22:53;-3.00;99.90
52275;DHT22;38228;50.940;4.024;2024-01-10T02:25:19;-3.00;99.90
52275;DHT22;38228;50.940;4.024;2024-01-10T02:27:45;-3.00;99.90
52275;DHT22;38228;50.940;4.024;2024-01-10T02:30:10;-2.80;99.90
52275;DHT22;38228;50.940;4.024;2024-01-10T02:32:37;-2.80;99.90
52275;DHT22;38228;50.940;4.024;2024-01-10T02:35:03;-2.80;99.90
52275;DHT22;38228;50.940;4.024;2024-01-10T02:37:29;-2.80;99.90
52275;DHT22;38228;50.940;4.024;2024-01-10T02:39:55;-2.80;99.90
52275;DHT22;38228;50.940;4.024;2024-01-10T02:42:20;-2.90;99.90
52275;DHT22;38228;50.940;4.024;2024-01-10T02:44:46;-3.00;99.90
52275;DHT22;38228;50.940;4.024;2024-01-10T02:47:12;-3.10;99.90
52275;DHT22;38228;50.940;4.024;2024-01-10T02:49:38;-3.10;99.90
52275;DHT22;38228;50.940;4.024;2024-01-10T02:52:04;-3.10;99.90
52275;DHT22;38228;50.940;4.024;2024-01-10T02:54:30;-3.10;99.90
52275;DHT22;38228;50.940;4.024;2024-01-10T02:56:56;-3.20;99.90
52275;DHT22;38228;50.940;4.024;2024-01-10T02:59:22;-3.20;99.90
52275;DHT22;38228;50.940;4.024;2024-01-10T03:01:47;-3.10;99.90
52275;DHT22;38228;50.940;4.024;2024-01-10T03:04:13;-3.10;99.90
52275;DHT22;38228;50.940;4.024;2024-01-10T03:06:39;-3.20;99.90
52275;DHT22;38228;50.940;4.024;2024-01-10T03:09:04;-3.20;99.90
52275;DHT22;38228;50.940;4.024;2024-01-10T03:11:30;-3.50;99.90
52275;DHT22;38228;50.940;4.024;2024-01-10T03:14:02;-3.40;99.90
52275;DHT22;38228;50.940;4.024;2024-01-10T03:16:29;-3.20;99.90
52275;DHT22;38228;50.940;4.024;2024-01-10T03:18:55;-3.20;99.90
52275;DHT22;38228;50.940;4.024;2024-01-10T03:21:21;-3.20;99.90
52275;DHT22;38228;50.940;4.024;2024-01-10T03:23:55;-3.20;99.90
52275;DHT22;38228;50.940;4.024;2024-01-10T03:26:22;-3.20;99.90
52275;DHT22;38228;50.940;4.024;2024-01-10T03:28:48;-3.20;99.90
52275;DHT22;38228;50.940;4.024;2024-01-10T03:31:14;-3.10;99.90
52275;DHT22;38228;50.940;4.024;2024-01-10T03:33:40;-3.20;99.90
52275;DHT22;38228;50.940;4.024;2024-01-10T03:36:07;-3.20;99.90
52275;DHT22;38228;50.940;4.024;2024-01-10T03:38:32;-3.20;99.90
52275;DHT22;38228;50.940;4.024;2024-01-10T03:40:58;-3.30;99.90
52275;DHT22;38228;50.940;4.024;2024-01-10T03:43:24;-3.40;99.90
52275;DHT22;38228;50.940;4.024;2024-01-10T03:45:49;-3.40;99.90
52275;DHT22;38228;50.940;4.024;2024-01-10T03:48:15;-3.40;99.90
52275;DHT22;38228;50.940;4.024;2024-01-10T03:50:41;-3.40;99.90
52275;DHT22;38228;50.940;4.024;2024-01-10T03:53:06;-3.50;99.90
52275;DHT22;38228;50.940;4.024;2024-01-10T03:55:32;-3.40;99.90
52275;DHT22;38228;50.940;4.024;2024-01-10T03:57:58;-3.60;99.90
52275;DHT22;38228;50.940;4.024;2024-01-10T04:00:24;-3.60;99.90
52275;DHT22;38228;50.940;4.024;2024-01-10T04:02:51;-3.60;99.90
52275;DHT22;38228;50.940;4.024;2024-01-10T04:05:18;-3.70;99.90
52275;DHT22;38228;50.940;4.024;2024-01-10T04:07:45;-3.70;99.90
52275;DHT22;38228;50.940;4.024;2024-01-10T04:10:12;-3.70;99.90
52275;DHT22;38228;50.940;4.024;2024-01-10T04:12:42;-3.70;99.90
52275;DHT22;38228;50.940;4.024;2024-01-10T04:15:08;-3.70;99.90
52275;DHT22;38228;50.940;4.024;2024-01-10T04:17:34;-3.70;99.90
52275;DHT22;38228;50.940;4.024;2024-01-10T04:19:59;-3.70;99.90
52275;DHT22;38228;50.940;4.024;2024-01-10T04:22:25;-3.70;99.90
52275;DHT22;38228;50.940;4.024;2024-01-10T04:24:51;-3.70;99.90
52275;DHT22;38228;50.940;4.024;2024-01-10T04:27:17;-3.70;99.90
52275;DHT22;38228;50.940;4.024;2024-01-10T04:29:44;-3.70;99.90
52275;DHT22;38228;50.940;4.024;2024-01-10T04:32:10;-3.60;99.90
52275;DHT22;38228;50.940;4.024;2024-01-10T04:34:35;-3.60;99.90
52275;DHT22;38228;50.940;4.024;2024-01-10T04:37:02;-3.70;99.90
52275;DHT22;38228;50.940;4.024;2024-01-10T04:39:27;-3.70;99.90
52275;DHT22;38228;50.940;4.024;2024-01-10T04:41:53;-3.70;99.90
52275;DHT22;38228;50.940;4.024;2024-01-10T04:44:19;-3.70;99.90
52275;DHT22;38228;50.940;4.024;2024-01-10T04:46:44;-3.60;99.90
52275;DHT22;38228;50.940;4.024;2024-01-10T04:49:10;-3.60;99.90
52275;DHT22;38228;50.940;4.024;2024-01-10T04:51:37;-3.60;99.90
52275;DHT22;38228;50.940;4.024;2024-01-10T04:54:03;-3.60;99.90
52275;DHT22;38228;50.940;4.024;2024-01-10T04:56:29;-3.60;99.90
52275;DHT22;38228;50.940;4.024;2024-01-10T04:58:55;-3.50;99.90
52275;DHT22;38228;50.940;4.024;2024-01-10T05:01:21;-3.50;99.90
52275;DHT22;38228;50.940;4.024;2024-01-10T05:03:47;-3.50;99.90
52275;DHT22;38228;50.940;4.024;2024-01-10T05:06:12;-3.50;99.90
52275;DHT22;38228;50.940;4.024;2024-01-10T05:08:38;-3.50;99.90
52275;DHT22;38228;50.940;4.024;2024-01-10T05:11:04;-3.50;99.90
52275;DHT22;38228;50.940;4.024;2024-01-10T05:13:30;-3.50;99.90
52275;DHT22;38228;50.940;4.024;2024-01-10T05:15:55;-3.60;99.90
52275;DHT22;38228;50.940;4.024;2024-01-10T05:18:21;-3.50;99.90
52275;DHT22;38228;50.940;4.024;2024-01-10T05:20:47;-3.50;99.90
52275;DHT22;38228;50.940;4.024;2024-01-10T05:23:13;-3.50;99.90
52275;DHT22;38228;50.940;4.024;2024-01-10T05:25:39;-3.50;99.90
52275;DHT22;38228;50.940;4.024;2024-01-10T05:28:05;-3.50;99.90
52275;DHT22;38228;50.940;4.024;2024-01-10T05:30:31;-3.50;99.90
52275;DHT22;38228;50.940;4.024;2024-01-10T05:32:57;-3.50;99.90
52275;DHT22;38228;50.940;4.024;2024-01-10T05:35:24;-3.50;99.90
52275;DHT22;38228;50.940;4.024;2024-01-10T05:37:51;-3.40;99.90
52275;DHT22;38228;50.940;4.024;2024-01-10T05:40:17;-3.60;99.90
52275;DHT22;38228;50.940;4.024;2024-01-10T05:42:44;-3.50;99.90
52275;DHT22;38228;50.940;4.024;2024-01-10T05:45:10;-3.50;99.90
52275;DHT22;38228;50.940;4.024;2024-01-10T05:47:35;-3.50;99.90
52275;DHT22;38228;50.940;4.024;2024-01-10T05:50:02;-3.70;99.90
52275;DHT22;38228;50.940;4.024;2024-01-10T05:52:29;-3.60;99.90
52275;DHT22;38228;50.940;4.024;2024-01-10T05:54:55;-3.60;99.90
52275;DHT22;38228;50.940;4.024;2024-01-10T05:57:21;-3.50;99.90
52275;DHT22;38228;50.940;4.024;2024-01-10T05:59:47;-3.70;99.90
52275;DHT22;38228;50.940;4.024;2024-01-10T06:02:12;-3.80;99.90
52275;DHT22;38228;50.940;4.024;2024-01-10T06:04:41;-3.50;99.90
52275;DHT22;38228;50.940;4.024;2024-01-10T06:07:07;-3.50;99.90
52275;DHT22;38228;50.940;4.024;2024-01-10T06:09:32;-3.50;99.90
52275;DHT22;38228;50.940;4.024;2024-01-10T06:11:58;-3.50;99.90
52275;DHT22;38228;50.940;4.024;2024-01-10T06:14:24;-3.60;99.90
52275;DHT22;38228;50.940;4.024;2024-01-10T06:16:50;-3.80;99.90
52275;DHT22;38228;50.940;4.024;2024-01-10T06:19:15;-3.70;99.90
52275;DHT22;38228;50.940;4.024;2024-01-10T06:21:41;-3.60;99.90
52275;DHT22;38228;50.940;4.024;2024-01-10T06:24:07;-3.60;99.90
52275;DHT22;38228;50.940;4.024;2024-01-10T06:26:33;-3.60;99.90
52275;DHT22;38228;50.940;4.024;2024-01-10T06:28:59;-3.70;99.90
52275;DHT22;38228;50.940;4.024;2024-01-10T06:31:24;-3.70;99.90
52275;DHT22;38228;50.940;4.024;2024-01-10T06:33:50;-3.60;99.90
52275;DHT22;38228;50.940;4.024;2024-01-10T06:36:16;-3.50;99.90
52275;DHT22;38228;50.940;4.024;2024-01-10T06:38:41;-3.50;99.90
52275;DHT22;38228;50.940;4.024;2024-01-10T06:41:08;-3.80;99.90
52275;DHT22;38228;50.940;4.024;2024-01-10T06:43:35;-4.20;99.90
52275;DHT22;38228;50.940;4.024;2024-01-10T06:46:01;-4.20;99.90
52275;DHT22;38228;50.940;4.024;2024-01-10T06:48:28;-4.10;99.90
52275;DHT22;38228;50.940;4.024;2024-01-10T06:50:55;-4.20;99.90
52275;DHT22;38228;50.940;4.024;2024-01-10T06:53:21;-4.00;99.90
52275;DHT22;38228;50.940;4.024;2024-01-10T06:55:47;-3.90;99.90
52275;DHT22;38228;50.940;4.024;2024-01-10T06:58:13;-3.70;99.90
52275;DHT22;38228;50.940;4.024;2024-01-10T07:00:38;-3.50;99.90
52275;DHT22;38228;50.940;4.024;2024-01-10T07:03:04;-3.30;99.90
52275;DHT22;38228;50.940;4.024;2024-01-10T07:05:30;-3.60;99.90
52275;DHT22;38228;50.940;4.024;2024-01-10T07:08:00;-3.50;99.90
52275;DHT22;38228;50.940;4.024;2024-01-10T07:10:29;-3.40;99.90
52275;DHT22;38228;50.940;4.024;2024-01-10T07:12:55;-3.40;99.90
52275;DHT22;38228;50.940;4.024;2024-01-10T07:15:21;-3.40;99.90
52275;DHT22;38228;50.940;4.024;2024-01-10T07:17:47;-3.40;99.90
52275;DHT22;38228;50.940;4.024;2024-01-10T07:20:13;-3.40;99.90
52275;DHT22;38228;50.940;4.024;2024-01-10T07:22:39;-3.60;99.90
52275;DHT22;38228;50.940;4.024;2024-01-10T07:25:07;-3.70;99.90
52275;DHT22;38228;50.940;4.024;2024-01-10T07:27:40;-3.60;99.90
52275;DHT22;38228;50.940;4.024;2024-01-10T07:30:06;-3.50;99.90
52275;DHT22;38228;50.940;4.024;2024-01-10T07:32:42;-3.20;99.90
52275;DHT22;38228;50.940;4.024;2024-01-10T07:35:09;-3.40;99.90
52275;DHT22;38228;50.940;4.024;2024-01-10T07:37:40;-3.80;99.90
52275;DHT22;38228;50.940;4.024;2024-01-10T07:40:07;-4.00;99.90
52275;DHT22;38228;50.940;4.024;2024-01-10T07:42:34;-3.80;99.90
52275;DHT22;38228;50.940;4.024;2024-01-10T07:45:00;-3.50;99.90
52275;DHT22;38228;50.940;4.024;2024-01-10T07:47:34;-3.40;99.90
52275;DHT22;38228;50.940;4.024;2024-01-10T07:50:08;-3.20;99.90
52275;DHT22;38228;50.940;4.024;2024-01-10T07:52:34;-3.30;99.90
52275;DHT22;38228;50.940;4.024;2024-01-10T07:55:00;-3.70;99.90
52275;DHT22;38228;50.940;4.024;2024-01-10T07:57:27;-3.60;99.90
52275;DHT22;38228;50.940;4.024;2024-01-10T07:59:53;-3.40;99.90
52275;DHT22;38228;50.940;4.024;2024-01-10T08:02:19;-3.60;99.90
52275;DHT22;38228;50.940;4.024;2024-01-10T08:04:45;-3.60;99.90
52275;DHT22;38228;50.940;4.024;2024-01-10T08:07:10;-3.40;99.90
52275;DHT22;38228;50.940;4.024;2024-01-10T08:09:37;-3.30;99.90
52275;DHT22;38228;50.940;4.024;2024-01-10T08:12:05;-3.20;99.90
52275;DHT22;38228;50.940;4.024;2024-01-10T08:14:32;-3.20;99.90
52275;DHT22;38228;50.940;4.024;2024-01-10T08:16:58;-3.40;99.90
52275;DHT22;38228;50.940;4.024;2024-01-10T08:19:24;-3.60;99.90
52275;DHT22;38228;50.940;4.024;2024-01-10T08:21:54;-3.50;99.90
52275;DHT22;38228;50.940;4.024;2024-01-10T08:24:20;-3.30;99.90
52275;DHT22;38228;50.940;4.024;2024-01-10T08:26:47;-3.20;99.90
52275;DHT22;38228;50.940;4.024;2024-01-10T08:29:20;-3.10;99.90
52275;DHT22;38228;50.940;4.024;2024-01-10T08:31:47;-3.00;99.90
52275;DHT22;38228;50.940;4.024;2024-01-10T08:34:13;-3.10;99.90
52275;DHT22;38228;50.940;4.024;2024-01-10T08:36:38;-3.20;99.90
52275;DHT22;38228;50.940;4.024;2024-01-10T08:39:04;-3.20;99.90
52275;DHT22;38228;50.940;4.024;2024-01-10T08:41:30;-3.20;99.90
52275;DHT22;38228;50.940;4.024;2024-01-10T08:43:56;-3.40;99.90
52275;DHT22;38228;50.940;4.024;2024-01-10T08:46:22;-3.20;99.90
52275;DHT22;38228;50.940;4.024;2024-01-10T08:48:50;-3.10;99.90
52275;DHT22;38228;50.940;4.024;2024-01-10T08:51:16;-3.10;99.90
52275;DHT22;38228;50.940;4.024;2024-01-10T08:53:45;-3.20;99.90
52275;DHT22;38228;50.940;4.024;2024-01-10T08:56:11;-3.40;99.90
52275;DHT22;38228;50.940;4.024;2024-01-10T08:58:37;-3.40;99.90
52275;DHT22;38228;50.940;4.024;2024-01-10T09:01:04;-3.50;99.90
52275;DHT22;38228;50.940;4.024;2024-01-10T09:03:33;-3.40;99.90
52275;DHT22;38228;50.940;4.024;2024-01-10T09:05:59;-3.30;99.90
52275;DHT22;38228;50.940;4.024;2024-01-10T09:08:25;-3.30;99.90
52275;DHT22;38228;50.940;4.024;2024-01-10T09:10:51;-3.20;99.90
52275;DHT22;38228;50.940;4.024;2024-01-10T09:13:16;-3.20;99.90
52275;DHT22;38228;50.940;4.024;2024-01-10T09:15:43;-3.10;99.90
52275;DHT22;38228;50.940;4.024;2024-01-10T09:18:08;-3.20;99.90
52275;DHT22;38228;50.940;4.024;2024-01-10T09:20:35;-3.10;99.90
52275;DHT22;38228;50.940;4.024;2024-01-10T09:23:01;-3.00;99.90
52275;DHT22;38228;50.940;4.024;2024-01-10T09:25:27;-3.00;99.90
52275;DHT22;38228;50.940;4.024;2024-01-10T09:27:53;-2.90;99.90
52275;DHT22;38228;50.940;4.024;2024-01-10T09:30:20;-2.90;99.90
52275;DHT22;38228;50.940;4.024;2024-01-10T09:32:46;-3.10;99.90
52275;DHT22;38228;50.940;4.024;2024-01-10T09:35:12;-3.00;99.90
52275;DHT22;38228;50.940;4.024;2024-01-10T09:37:38;-2.90;99.90
52275;DHT22;38228;50.940;4.024;2024-01-10T09:40:05;-2.80;99.90
52275;DHT22;38228;50.940;4.024;2024-01-10T09:42:35;-2.90;99.90
52275;DHT22;38228;50.940;4.024;2024-01-10T09:45:04;-3.00;99.90
52275;DHT22;38228;50.940;4.024;2024-01-10T09:47:31;-3.10;99.90
52275;DHT22;38228;50.940;4.024;2024-01-10T09:49:58;-3.10;99.90
52275;DHT22;38228;50.940;4.024;2024-01-10T09:52:27;-3.10;99.90
52275;DHT22;38228;50.940;4.024;2024-01-10T09:54:55;-2.90;99.90
52275;DHT22;38228;50.940;4.024;2024-01-10T09:57:24;-2.70;99.90
52275;DHT22;38228;50.940;4.024;2024-01-10T09:59:51;-2.80;99.90
52275;DHT22;38228;50.940;4.024;2024-01-10T10:02:20;-2.70;99.90
52275;DHT22;38228;50.940;4.024;2024-01-10T10:04:56;-2.60;99.90
52275;DHT22;38228;50.940;4.024;2024-01-10T10:07:26;-2.70;99.90
52275;DHT22;38228;50.940;4.024;2024-01-10T10:09:52;-2.70;99.90
52275;DHT22;38228;50.940;4.024;2024-01-10T10:12:19;-2.70;99.90
52275;DHT22;38228;50.940;4.024;2024-01-10T10:14:44;-2.70;99.90
52275;DHT22;38228;50.940;4.024;2024-01-10T10:17:14;-2.50;99.90
52275;DHT22;38228;50.940;4.024;2024-01-10T10:19:40;-2.40;99.90
52275;DHT22;38228;50.940;4.024;2024-01-10T10:22:10;-2.40;99.90
52275;DHT22;38228;50.940;4.024;2024-01-10T10:24:36;-2.40;99.90
52275;DHT22;38228;50.940;4.024;2024-01-10T10:27:08;-2.40;99.90
52275;DHT22;38228;50.940;4.024;2024-01-10T10:29:36;-2.40;99.90
52275;DHT22;38228;50.940;4.024;2024-01-10T10:32:03;-2.30;99.90
52275;DHT22;38228;50.940;4.024;2024-01-10T10:34:31;-2.10;99.90
52275;DHT22;38228;50.940;4.024;2024-01-10T10:36:58;-1.90;99.90
52275;DHT22;38228;50.940;4.024;2024-01-10T10:39:25;-1.80;99.90
52275;DHT22;38228;50.940;4.024;2024-01-10T10:41:51;-1.70;99.90
52275;DHT22;38228;50.940;4.024;2024-01-10T10:44:23;-1.70;99.90
52275;DHT22;38228;50.940;4.024;2024-01-10T10:46:59;-1.60;99.90
52275;DHT22;38228;50.940;4.024;2024-01-10T10:49:29;-1.50;99.90
52275;DHT22;38228;50.940;4.024;2024-01-10T10:52:00;-1.50;99.90
52275;DHT22;38228;50.940;4.024;2024-01-10T10:54:28;-1.50;99.90
52275;DHT22;38228;50.940;4.024;2024-01-10T10:56:59;-1.50;99.90
52275;DHT22;38228;50.940;4.024;2024-01-10T10:59:28;-1.50;99.90
52275;DHT22;38228;50.940;4.024;2024-01-10T11:01:55;-1.60;99.90
52275;DHT22;38228;50.940;4.024;2024-01-10T11:04:21;-1.50;99.90
52275;DHT22;38228;50.940;4.024;2024-01-10T11:06:47;-1.40;99.90
52275;DHT22;38228;50.940;4.024;2024-01-10T11:09:15;-1.40;99.90
52275;DHT22;38228;50.940;4.024;2024-01-10T11:14:46;-1.40;99.90
52275;DHT22;38228;50.940;4.024;2024-01-10T11:20:34;-1.40;99.90
52275;DHT22;38228;50.940;4.024;2024-01-10T11:25:42;-1.20;99.90
52275;DHT22;38228;50.940;4.024;2024-01-10T11:28:08;-1.00;99.90
52275;DHT22;38228;50.940;4.024;2024-01-10T11:30:34;-0.90;99.90
52275;DHT22;38228;50.940;4.024;2024-01-10T11:33:02;-0.70;99.90
52275;DHT22;38228;50.940;4.024;2024-01-10T11:35:28;-0.50;99.90
52275;DHT22;38228;50.940;4.024;2024-01-10T11:37:59;-0.40;99.90
52275;DHT22;38228;50.940;4.024;2024-01-10T11:40:47;-0.40;99.90
52275;DHT22;38228;50.940;4.024;2024-01-10T11:43:14;-0.50;99.90
52275;DHT22;38228;50.940;4.024;2024-01-10T11:45:56;-0.70;99.90
52275;DHT22;38228;50.940;4.024;2024-01-10T11:48:42;-0.60;99.90
52275;DHT22;38228;50.940;4.024;2024-01-10T11:51:11;-0.60;99.90
52275;DHT22;38228;50.940;4.024;2024-01-10T11:53:42;-0.50;99.90
52275;DHT22;38228;50.940;4.024;2024-01-10T11:56:15;-0.50;99.90
52275;DHT22;38228;50.940;4.024;2024-01-10T11:59:06;-0.70;99.90
52275;DHT22;38228;50.940;4.024;2024-01-10T12:01:40;-0.50;99.90
52275;DHT22;38228;50.940;4.024;2024-01-10T12:04:10;-0.50;99.90
52275;DHT22;38228;50.940;4.024;2024-01-10T12:06:40;-0.50;99.90
52275;DHT22;38228;50.940;4.024;2024-01-10T12:09:18;-0.50;99.90
52275;DHT22;38228;50.940;4.024;2024-01-10T12:11:46;-0.40;99.90
52275;DHT22;38228;50.940;4.024;2024-01-10T12:14:14;-0.20;99.90
52275;DHT22;38228;50.940;4.024;2024-01-10T12:16:41;-0.20;99.90
52275;DHT22;38228;50.940;4.024;2024-01-10T12:19:09;-0.10;99.90
52275;DHT22;38228;50.940;4.024;2024-01-10T12:21:41;-0.10;99.90
52275;DHT22;38228;50.940;4.024;2024-01-10T12:24:09;0.10;99.90
52275;DHT22;38228;50.940;4.024;2024-01-10T12:26:35;0.20;99.90
52275;DHT22;38228;50.940;4.024;2024-01-10T12:29:06;0.20;99.90
52275;DHT22;38228;50.940;4.024;2024-01-10T12:31:34;0.20;99.90
52275;DHT22;38228;50.940;4.024;2024-01-10T12:34:03;0.20;99.90
52275;DHT22;38228;50.940;4.024;2024-01-10T12:36:31;0.20;99.90
52275;DHT22;38228;50.940;4.024;2024-01-10T12:39:03;0.20;99.90
52275;DHT22;38228;50.940;4.024;2024-01-10T12:41:32;0.20;99.90
52275;DHT22;38228;50.940;4.024;2024-01-10T12:44:04;0.30;99.90
52275;DHT22;38228;50.940;4.024;2024-01-10T12:46:33;0.30;99.90
52275;DHT22;38228;50.940;4.024;2024-01-10T12:49:01;0.30;99.90
52275;DHT22;38228;50.940;4.024;2024-01-10T12:51:30;0.40;99.90
52275;DHT22;38228;50.940;4.024;2024-01-10T12:53:59;0.50;99.90
52275;DHT22;38228;50.940;4.024;2024-01-10T12:56:26;0.40;99.90
52275;DHT22;38228;50.940;4.024;2024-01-10T12:58:58;0.40;99.90
52275;DHT22;38228;50.940;4.024;2024-01-10T13:01:25;0.30;99.90
52275;DHT22;38228;50.940;4.024;2024-01-10T13:03:56;0.10;99.90
52275;DHT22;38228;50.940;4.024;2024-01-10T13:06:25;0.10;99.90
52275;DHT22;38228;50.940;4.024;2024-01-10T13:08:55;0.10;99.90
52275;DHT22;38228;50.940;4.024;2024-01-10T13:11:24;0.00;99.90
52275;DHT22;38228;50.940;4.024;2024-01-10T13:13:51;0.20;99.90
52275;DHT22;38228;50.940;4.024;2024-01-10T13:16:18;0.20;99.90
52275;DHT22;38228;50.940;4.024;2024-01-10T13:18:50;0.30;99.90
52275;DHT22;38228;50.940;4.024;2024-01-10T13:21:20;0.40;99.90
52275;DHT22;38228;50.940;4.024;2024-01-10T13:23:48;0.50;99.90
52275;DHT22;38228;50.940;4.024;2024-01-10T13:26:16;0.30;99.90
52275;DHT22;38228;50.940;4.024;2024-01-10T13:28:53;0.30;99.90
52275;DHT22;38228;50.940;4.024;2024-01-10T13:31:21;0.30;99.90
52275;DHT22;38228;50.940;4.024;2024-01-10T13:33:50;0.30;99.90
52275;DHT22;38228;50.940;4.024;2024-01-10T13:36:18;0.30;99.90
52275;DHT22;38228;50.940;4.024;2024-01-10T13:38:46;0.30;99.90
52275;DHT22;38228;50.940;4.024;2024-01-10T13:41:14;0.40;99.90
52275;DHT22;38228;50.940;4.024;2024-01-10T13:43:40;0.40;99.90
52275;DHT22;38228;50.940;4.024;2024-01-10T13:46:06;0.60;99.90
52275;DHT22;38228;50.940;4.024;2024-01-10T13:48:32;0.70;99.90
52275;DHT22;38228;50.940;4.024;2024-01-10T13:50:58;0.70;99.90
52275;DHT22;38228;50.940;4.024;2024-01-10T13:53:24;0.70;99.90
52275;DHT22;38228;50.940;4.024;2024-01-10T13:55:51;0.70;99.90
52275;DHT22;38228;50.940;4.024;2024-01-10T13:58:20;0.70;99.90
52275;DHT22;38228;50.940;4.024;2024-01-10T14:00:49;0.70;99.90
52275;DHT22;38228;50.940;4.024;2024-01-10T14:03:21;0.50;99.90
52275;DHT22;38228;50.940;4.024;2024-01-10T14:05:49;0.50;99.90
52275;DHT22;38228;50.940;4.024;2024-01-10T14:08:16;0.60;99.90
52275;DHT22;38228;50.940;4.024;2024-01-10T14:10:44;0.60;99.90
52275;DHT22;38228;50.940;4.024;2024-01-10T14:13:09;0.90;99.90
52275;DHT22;38228;50.940;4.024;2024-01-10T14:15:35;0.90;99.90
52275;DHT22;38228;50.940;4.024;2024-01-10T14:18:01;1.10;99.90
52275;DHT22;38228;50.940;4.024;2024-01-10T14:20:27;1.40;99.90
52275;DHT22;38228;50.940;4.024;2024-01-10T14:22:53;1.60;99.90
52275;DHT22;38228;50.940;4.024;2024-01-10T14:25:21;1.70;99.90
52275;DHT22;38228;50.940;4.024;2024-01-10T14:27:47;1.60;99.90
52275;DHT22;38228;50.940;4.024;2024-01-10T14:30:13;1.70;99.90
52275;DHT22;38228;50.940;4.024;2024-01-10T14:32:40;1.80;99.90
52275;DHT22;38228;50.940;4.024;2024-01-10T14:35:07;2.00;99.90
52275;DHT22;38228;50.940;4.024;2024-01-10T14:37:33;2.30;99.90
52275;DHT22;38228;50.940;4.024;2024-01-10T14:40:02;2.60;99.90
52275;DHT22;38228;50.940;4.024;2024-01-10T14:42:28;3.00;99.90
52275;DHT22;38228;50.940;4.024;2024-01-10T14:44:54;3.40;99.90
52275;DHT22;38228;50.940;4.024;2024-01-10T14:47:20;3.50;99.90
52275;DHT22;38228;50.940;4.024;2024-01-10T14:49:46;3.30;99.90
52275;DHT22;38228;50.940;4.024;2024-01-10T14:52:12;3.10;99.90
52275;DHT22;38228;50.940;4.024;2024-01-10T14:54:38;2.60;99.90
52275;DHT22;38228;50.940;4.024;2024-01-10T14:57:04;2.50;99.90
52275;DHT22;38228;50.940;4.024;2024-01-10T14:59:30;2.20;99.90
52275;DHT22;38228;50.940;4.024;2024-01-10T15:01:57;1.80;99.90
52275;DHT22;38228;50.940;4.024;2024-01-10T15:04:24;1.50;99.90
52275;DHT22;38228;50.940;4.024;2024-01-10T15:06:55;1.40;99.90
52275;DHT22;38228;50.940;4.024;2024-01-10T15:09:27;1.20;99.90
52275;DHT22;38228;50.940;4.024;2024-01-10T15:11:55;1.20;99.90
52275;DHT22;38228;50.940;4.024;2024-01-10T15:14:22;1.20;99.90
52275;DHT22;38228;50.940;4.024;2024-01-10T15:16:48;1.30;99.90
52275;DHT22;38228;50.940;4.024;2024-01-10T15:19:14;1.30;99.90
52275;DHT22;38228;50.940;4.024;2024-01-10T15:21:42;1.20;99.90
52275;DHT22;38228;50.940;4.024;2024-01-10T15:24:09;1.10;99.90
52275;DHT22;38228;50.940;4.024;2024-01-10T15:26:37;1.00;99.90
52275;DHT22;38228;50.940;4.024;2024-01-10T15:29:05;1.00;99.90
52275;DHT22;38228;50.940;4.024;2024-01-10T15:31:33;1.10;99.90
52275;DHT22;38228;50.940;4.024;2024-01-10T15:34:02;1.10;99.90
52275;DHT22;38228;50.940;4.024;2024-01-10T15:36:28;1.10;99.90
52275;DHT22;38228;50.940;4.024;2024-01-10T15:38:54;1.00;99.90
52275;DHT22;38228;50.940;4.024;2024-01-10T15:41:21;1.00;99.90
52275;DHT22;38228;50.940;4.024;2024-01-10T15:43:48;0.90;99.90